Mount Pearl, Canada
Current Conditions -  °F | °C
As of 9:00 AM on Thursday 29 Jan 2015 (Local Time) from CYYT Reporting Station
Broken Clouds Broken Clouds  
Wind Chill: 27°   Ceiling: 18000
Heat Index: 37°   Visibility: 15mi
Dew Point: 36°   Wind: 22mph
Humidity: 93%   Direction: 250°WSW
Pressure: 29.87"   Gusts: NA
Location:  47.52°N, 52.82°W
Report Text: CYYT 291200Z 25019KT 15SM FEW018 BKN180 03/02 A2987 RMK SC2AC4 SLP118
Loading
Personal Weather Stations






























Interactive Weather Map New forecast layout! Learn more

10-Day Weather Forecast

Advertisements
Track Severe Weather on mobile